Time;durP1;ratioP1;P1;durP2;ratioP2;P2;SDS_P1;SDS_P2;PMS_P1;PMS_P2;Temp;Humidity;BMP_temperature;BMP_pressure;BME280_temperature;BME280_humidity;BME280_pressure;Samples;Min_cycle;Max_cycle;Signal;HPM_P1;HPM_P2
2020/12/19 00:01:31;;;;;;;13.82;7.70;;;;;;;;;;5052360;28;20687;-78
2020/12/19 00:04:17;;;;;;;14.77;7.93;;;;;;;;;;5042662;28;20407;-76
2020/12/19 00:07:02;;;;;;;11.98;7.25;;;;;;;;;;5046669;28;20051;-79
2020/12/19 00:09:47;;;;;;;14.30;6.75;;;;;;;;;;5046156;28;20024;-77
2020/12/19 00:12:33;;;;;;;16.08;8.75;;;;;;;;;;5048662;28;20317;-77
2020/12/19 00:15:19;;;;;;;12.25;6.40;;;;;;;;;;5052391;28;20020;-76
2020/12/19 00:18:04;;;;;;;17.95;8.55;;;;;;;;;;5050944;28;20072;-76
2020/12/19 00:20:49;;;;;;;11.48;7.68;;;;;;;;;;5047833;28;20028;-78
2020/12/19 00:23:35;;;;;;;11.70;7.13;;;;;;;;;;5046534;28;20032;-76
2020/12/19 00:26:20;;;;;;;13.38;6.68;;;;;;;;;;5044743;28;20029;-78
2020/12/19 00:29:06;;;;;;;12.73;7.40;;;;;;;;;;5045298;28;20196;-76
2020/12/19 00:31:51;;;;;;;10.93;6.30;;;;;;;;;;5048358;28;20474;-75
2020/12/19 00:34:37;;;;;;;17.35;7.15;;;;;;;;;;5049438;28;20059;-76
2020/12/19 00:37:22;;;;;;;11.85;6.38;;;;;;;;;;5050032;28;20086;-77
2020/12/19 00:40:08;;;;;;;11.50;6.75;;;;;;;;;;5042731;28;20035;-77
2020/12/19 00:42:53;;;;;;;10.57;6.75;;;;;;;;;;5049942;28;20041;-77
2020/12/19 00:45:39;;;;;;;10.23;5.95;;;;;;;;;;5044166;28;20107;-76
2020/12/19 00:48:24;;;;;;;13.43;6.47;;;;;;;;;;5050681;28;20123;-77
2020/12/19 00:51:13;;;;;;;13.43;6.07;;;;;;;;;;5042834;28;20081;-76
2020/12/19 00:53:58;;;;;;;11.53;6.03;;;;;;;;;;5049332;28;20098;-77
2020/12/19 00:56:43;;;;;;;10.85;6.15;;;;;;;;;;5043959;28;20090;-77
2020/12/19 00:59:29;;;;;;;9.55;5.85;;;;;;;;;;5042196;28;20039;-78
2020/12/19 01:02:14;;;;;;;12.35;6.15;;;;;;;;;;5042930;28;20032;-78
2020/12/19 01:04:59;;;;;;;10.50;6.47;;;;;;;;;;5047693;28;20144;-77
2020/12/19 01:07:44;;;;;;;14.23;7.38;;;;;;;;;;5048991;28;20070;-77
2020/12/19 01:10:30;;;;;;;9.43;5.68;;;;;;;;;;5044245;28;20036;-77
2020/12/19 01:13:15;;;;;;;12.80;6.35;;;;;;;;;;5046867;28;20115;-80
2020/12/19 01:16:00;;;;;;;10.90;5.72;;;;;;;;;;5044310;28;20056;-77
2020/12/19 01:18:46;;;;;;;11.60;6.60;;;;;;;;;;5045239;28;20021;-77
2020/12/19 01:21:32;;;;;;;11.07;6.35;;;;;;;;;;5053257;28;20386;-77
2020/12/19 01:24:17;;;;;;;9.48;6.05;;;;;;;;;;5046953;28;20028;-77
2020/12/19 01:27:02;;;;;;;9.40;6.20;;;;;;;;;;5044665;28;20059;-77
2020/12/19 01:29:48;;;;;;;9.15;5.72;;;;;;;;;;5042862;28;20031;-77
2020/12/19 01:32:33;;;;;;;9.48;6.45;;;;;;;;;;5039137;28;20279;-77
2020/12/19 01:35:18;;;;;;;10.18;6.22;;;;;;;;;;5049510;28;20107;-76
2020/12/19 01:38:03;;;;;;;12.73;5.95;;;;;;;;;;5045624;28;20041;-76
2020/12/19 01:40:49;;;;;;;11.45;6.50;;;;;;;;;;5040929;28;20029;-77
2020/12/19 01:43:42;;;;;;;8.88;5.55;;;;;;;;;;5045491;28;20036;-77
2020/12/19 01:46:46;;;;;;;11.15;5.70;;;;;;;;;;5050039;28;20035;-77
2020/12/19 01:49:32;;;;;;;11.55;5.82;;;;;;;;;;5050972;28;20300;-77
2020/12/19 01:52:19;;;;;;;8.63;5.28;;;;;;;;;;5040177;28;20660;-78
2020/12/19 01:55:04;;;;;;;10.10;6.18;;;;;;;;;;5043343;28;20029;-77
2020/12/19 01:57:49;;;;;;;9.70;6.15;;;;;;;;;;5042977;28;20108;-78
2020/12/19 02:00:38;;;;;;;10.32;5.53;;;;;;;;;;5040970;28;20103;-78
2020/12/19 02:03:23;;;;;;;10.27;6.23;;;;;;;;;;5046867;28;20027;-77
2020/12/19 02:06:09;;;;;;;11.57;5.70;;;;;;;;;;5047530;28;20286;-77
2020/12/19 02:08:55;;;;;;;10.40;5.85;;;;;;;;;;5043812;28;20036;-78
2020/12/19 02:11:41;;;;;;;10.18;5.28;;;;;;;;;;5056188;28;20119;-78
2020/12/19 02:14:28;;;;;;;9.52;5.30;;;;;;;;;;5046088;28;20020;-77
2020/12/19 02:17:14;;;;;;;12.05;5.78;;;;;;;;;;5051480;28;20036;-77
2020/12/19 02:19:59;;;;;;;13.43;6.38;;;;;;;;;;5047251;28;20171;-77
2020/12/19 02:22:44;;;;;;;9.70;5.80;;;;;;;;;;5052273;28;20089;-79
2020/12/19 02:25:33;;;;;;;9.95;5.40;;;;;;;;;;5042345;28;20070;-78
2020/12/19 02:28:19;;;;;;;12.60;5.70;;;;;;;;;;5036571;28;20115;-77
2020/12/19 02:31:04;;;;;;;13.25;5.97;;;;;;;;;;5045606;28;20059;-77
2020/12/19 02:33:49;;;;;;;8.20;5.88;;;;;;;;;;5047773;28;20020;-77
2020/12/19 02:36:34;;;;;;;11.95;6.88;;;;;;;;;;5053163;28;20675;-77
2020/12/19 02:39:20;;;;;;;10.80;6.07;;;;;;;;;;5046864;28;20021;-77
2020/12/19 02:42:05;;;;;;;9.10;5.47;;;;;;;;;;5050555;28;20028;-77
2020/12/19 02:44:50;;;;;;;11.73;5.95;;;;;;;;;;5045936;28;20107;-76
2020/12/19 02:47:35;;;;;;;11.85;5.55;;;;;;;;;;5047160;28;20502;-76
2020/12/19 02:50:21;;;;;;;9.02;5.45;;;;;;;;;;5035794;28;20370;-77
2020/12/19 02:53:06;;;;;;;9.38;5.53;;;;;;;;;;5041119;28;20024;-77
2020/12/19 02:55:51;;;;;;;9.57;5.53;;;;;;;;;;5044489;28;20090;-76
2020/12/19 02:58:36;;;;;;;8.60;5.63;;;;;;;;;;5046762;28;20474;-78
2020/12/19 03:01:25;;;;;;;12.05;5.47;;;;;;;;;;5044239;28;20437;-78
2020/12/19 03:04:10;;;;;;;9.45;5.65;;;;;;;;;;5051373;28;20058;-78
2020/12/19 03:06:55;;;;;;;11.15;5.78;;;;;;;;;;5054580;28;20043;-77
2020/12/19 03:09:41;;;;;;;8.50;5.30;;;;;;;;;;5049979;28;20385;-77
2020/12/19 03:12:26;;;;;;;11.18;5.50;;;;;;;;;;5048736;28;20040;-79
2020/12/19 03:15:11;;;;;;;11.10;5.10;;;;;;;;;;5044704;28;20217;-77
2020/12/19 03:17:56;;;;;;;10.57;5.95;;;;;;;;;;5044087;28;20020;-77
2020/12/19 03:20:41;;;;;;;7.78;4.95;;;;;;;;;;5049170;28;20381;-77
2020/12/19 03:23:27;;;;;;;10.43;5.13;;;;;;;;;;5050307;28;20027;-76
2020/12/19 03:26:12;;;;;;;8.48;5.40;;;;;;;;;;5050988;28;20028;-78
2020/12/19 03:28:57;;;;;;;10.38;5.55;;;;;;;;;;5041716;28;20506;-78
2020/12/19 03:31:43;;;;;;;10.98;6.55;;;;;;;;;;5041064;28;20029;-78
2020/12/19 03:34:28;;;;;;;9.15;4.85;;;;;;;;;;5044296;28;20029;-78
2020/12/19 03:37:13;;;;;;;12.50;5.68;;;;;;;;;;5050195;28;20872;-78
2020/12/19 03:39:59;;;;;;;11.25;6.13;;;;;;;;;;5050868;28;20371;-79
2020/12/19 03:42:44;;;;;;;10.00;5.07;;;;;;;;;;5043771;28;20048;-79
2020/12/19 03:45:29;;;;;;;11.40;6.00;;;;;;;;;;5048606;28;20033;-77
2020/12/19 03:48:15;;;;;;;7.75;4.68;;;;;;;;;;5049012;28;20062;-77
2020/12/19 03:51:00;;;;;;;9.00;5.85;;;;;;;;;;5043649;28;20467;-78
2020/12/19 03:53:45;;;;;;;9.30;5.68;;;;;;;;;;5041167;28;20118;-76
2020/12/19 03:56:30;;;;;;;8.10;4.72;;;;;;;;;;5051192;28;20676;-77
2020/12/19 03:59:15;;;;;;;7.93;5.45;;;;;;;;;;5050304;28;20111;-76
2020/12/19 04:02:01;;;;;;;7.93;4.90;;;;;;;;;;5045879;28;20028;-77
2020/12/19 04:04:46;;;;;;;9.07;5.47;;;;;;;;;;5047334;28;20037;-78
2020/12/19 04:07:31;;;;;;;11.73;6.68;;;;;;;;;;5044199;28;20079;-77
2020/12/19 04:10:16;;;;;;;10.88;5.05;;;;;;;;;;5050892;28;20028;-76
2020/12/19 04:13:02;;;;;;;9.48;5.63;;;;;;;;;;5045787;28;20043;-76
2020/12/19 04:15:47;;;;;;;7.25;5.10;;;;;;;;;;5043317;28;20023;-77
2020/12/19 04:18:32;;;;;;;8.48;4.65;;;;;;;;;;5038286;28;20090;-77
2020/12/19 04:21:17;;;;;;;11.85;5.10;;;;;;;;;;5032170;28;20032;-77
2020/12/19 04:24:02;;;;;;;8.82;5.20;;;;;;;;;;5045512;28;20025;-79
2020/12/19 04:26:48;;;;;;;9.43;4.70;;;;;;;;;;5052881;28;20029;-77
2020/12/19 04:29:33;;;;;;;8.70;5.40;;;;;;;;;;5041839;28;20032;-79
2020/12/19 04:32:18;;;;;;;9.70;5.15;;;;;;;;;;5040192;28;20490;-77
2020/12/19 04:35:04;;;;;;;10.35;4.78;;;;;;;;;;5051166;28;20119;-77
2020/12/19 04:37:49;;;;;;;10.93;5.18;;;;;;;;;;5043036;28;20025;-77
2020/12/19 04:40:35;;;;;;;11.07;5.07;;;;;;;;;;5039412;28;20025;-76
2020/12/19 04:43:20;;;;;;;11.52;5.53;;;;;;;;;;5040056;28;20029;-78
2020/12/19 04:46:06;;;;;;;10.05;4.90;;;;;;;;;;5040932;28;20119;-77
2020/12/19 04:48:51;;;;;;;8.43;5.10;;;;;;;;;;5041299;28;20021;-77
2020/12/19 04:51:37;;;;;;;7.78;4.20;;;;;;;;;;5044511;28;20039;-77
2020/12/19 04:54:22;;;;;;;7.07;4.45;;;;;;;;;;5040996;28;20016;-77
2020/12/19 04:57:15;;;;;;;9.68;4.95;;;;;;;;;;5049322;28;20021;-77
2020/12/19 05:00:00;;;;;;;10.52;5.45;;;;;;;;;;5049416;28;20427;-77
2020/12/19 05:02:45;;;;;;;11.30;5.28;;;;;;;;;;5041515;28;20360;-77
2020/12/19 05:05:32;;;;;;;12.68;5.63;;;;;;;;;;5043652;28;20520;-77
2020/12/19 05:08:17;;;;;;;10.98;4.80;;;;;;;;;;5044409;28;20037;-77
2020/12/19 05:11:02;;;;;;;11.60;5.45;;;;;;;;;;5044921;28;20028;-78
2020/12/19 05:13:47;;;;;;;10.48;5.18;;;;;;;;;;5045322;28;20091;-77
2020/12/19 05:16:33;;;;;;;8.05;4.70;;;;;;;;;;5043051;28;20017;-77
2020/12/19 05:19:18;;;;;;;7.53;4.95;;;;;;;;;;5048027;28;20027;-77
2020/12/19 05:22:03;;;;;;;8.93;5.15;;;;;;;;;;5045732;28;20028;-77
2020/12/19 05:24:49;;;;;;;7.20;4.55;;;;;;;;;;5040587;28;20470;-77
2020/12/19 05:27:35;;;;;;;10.02;4.45;;;;;;;;;;5047416;28;20028;-77
2020/12/19 05:30:21;;;;;;;9.00;4.60;;;;;;;;;;5046143;28;20394;-77
2020/12/19 05:33:06;;;;;;;7.53;4.25;;;;;;;;;;5046325;28;20093;-77
2020/12/19 05:35:51;;;;;;;10.02;4.65;;;;;;;;;;5045413;28;20523;-77
2020/12/19 05:38:37;;;;;;;9.32;5.03;;;;;;;;;;5045640;28;20516;-78
2020/12/19 05:41:23;;;;;;;9.32;4.22;;;;;;;;;;5043298;28;20442;-78
2020/12/19 05:44:08;;;;;;;8.82;4.60;;;;;;;;;;5052604;28;20028;-77
2020/12/19 05:46:55;;;;;;;7.95;4.57;;;;;;;;;;5052664;28;20904;-77
2020/12/19 05:49:41;;;;;;;9.38;4.57;;;;;;;;;;5047888;28;20475;-76
2020/12/19 05:52:27;;;;;;;8.00;4.90;;;;;;;;;;5042207;28;20485;-77
2020/12/19 05:55:17;;;;;;;10.38;4.85;;;;;;;;;;5052717;28;20029;-77
2020/12/19 05:58:03;;;;;;;12.52;4.82;;;;;;;;;;5046084;28;20351;-76
2020/12/19 06:00:50;;;;;;;9.95;4.82;;;;;;;;;;5049674;28;20062;-76
2020/12/19 06:03:37;;;;;;;8.50;4.95;;;;;;;;;;5051400;28;20036;-76
2020/12/19 06:06:23;;;;;;;10.75;5.00;;;;;;;;;;5049401;28;20025;-76
2020/12/19 06:09:09;;;;;;;7.90;4.82;;;;;;;;;;5048117;28;20028;-77
2020/12/19 06:12:05;;;;;;;9.60;5.05;;;;;;;;;;5046334;28;20676;-79
2020/12/19 06:14:51;;;;;;;9.55;5.85;;;;;;;;;;5054838;28;20067;-76
2020/12/19 06:17:53;;;;;;;10.75;5.93;;;;;;;;;;5050582;28;20060;-77
2020/12/19 06:20:39;;;;;;;13.05;7.30;;;;;;;;;;5048066;28;20195;-77
2020/12/19 06:23:32;;;;;;;13.90;7.75;;;;;;;;;;5038875;28;20096;-77
2020/12/19 06:26:17;;;;;;;15.02;8.38;;;;;;;;;;5047730;28;20017;-77
2020/12/19 06:29:03;;;;;;;13.15;7.65;;;;;;;;;;5047122;28;20085;-77
2020/12/19 06:31:57;;;;;;;12.23;7.65;;;;;;;;;;5048229;28;20036;-76
2020/12/19 06:34:43;;;;;;;13.38;7.03;;;;;;;;;;5046356;28;20035;-77
2020/12/19 06:37:28;;;;;;;15.20;6.95;;;;;;;;;;5048764;28;20028;-77
2020/12/19 06:40:18;;;;;;;11.23;6.20;;;;;;;;;;5045248;28;20484;-77
2020/12/19 06:43:21;;;;;;;13.80;6.85;;;;;;;;;;5043792;28;20033;-77
2020/12/19 06:46:26;;;;;;;9.45;5.78;;;;;;;;;;5052183;28;20048;-77
2020/12/19 06:49:24;;;;;;;10.13;5.68;;;;;;;;;;5044493;28;20082;-77
2020/12/19 06:52:11;;;;;;;24.52;15.45;;;;;;;;;;5044369;28;20036;-76
2020/12/19 06:54:56;;;;;;;18.30;11.40;;;;;;;;;;5037463;28;20375;-77
2020/12/19 06:57:48;;;;;;;10.32;5.72;;;;;;;;;;5037424;28;20373;-77
2020/12/19 07:00:35;;;;;;;9.18;5.13;;;;;;;;;;5033810;28;20037;-77
2020/12/19 07:03:36;;;;;;;9.65;6.03;;;;;;;;;;5066564;28;20029;-77
2020/12/19 07:06:21;;;;;;;8.07;4.68;;;;;;;;;;5045053;28;20602;-77
2020/12/19 07:09:26;;;;;;;10.43;5.47;;;;;;;;;;5043524;28;20063;-77
2020/12/19 07:12:28;;;;;;;9.52;4.85;;;;;;;;;;5049910;28;20493;-77
2020/12/19 07:15:33;;;;;;;10.80;5.85;;;;;;;;;;5046753;28;20044;-77
2020/12/19 07:18:34;;;;;;;10.30;5.78;;;;;;;;;;5047865;28;20475;-77
2020/12/19 07:21:20;;;;;;;10.95;5.20;;;;;;;;;;5044263;28;20056;-79
2020/12/19 07:24:05;;;;;;;33.20;20.27;;;;;;;;;;5044083;28;20025;-77
2020/12/19 07:26:51;;;;;;;14.60;8.13;;;;;;;;;;5046939;28;20016;-78
2020/12/19 07:29:36;;;;;;;12.07;6.30;;;;;;;;;;5043214;28;20043;-79
2020/12/19 07:32:22;;;;;;;9.20;5.55;;;;;;;;;;5050297;28;20043;-78
2020/12/19 07:35:07;;;;;;;11.82;5.65;;;;;;;;;;5046626;28;20086;-77
2020/12/19 07:37:52;;;;;;;10.90;5.57;;;;;;;;;;5041995;28;20087;-78
2020/12/19 07:40:38;;;;;;;8.93;5.65;;;;;;;;;;5044108;28;20074;-77
2020/12/19 07:43:23;;;;;;;10.82;5.97;;;;;;;;;;5039879;28;20056;-77
2020/12/19 07:46:09;;;;;;;17.95;6.13;;;;;;;;;;5045925;28;20028;-77
2020/12/19 07:48:54;;;;;;;13.18;6.35;;;;;;;;;;5050772;28;20118;-76
2020/12/19 07:51:39;;;;;;;13.43;6.38;;;;;;;;;;5047193;28;20463;-76
2020/12/19 07:54:25;;;;;;;12.25;6.65;;;;;;;;;;5051183;28;20639;-76
2020/12/19 07:57:11;;;;;;;11.38;6.03;;;;;;;;;;5046988;28;20060;-76
2020/12/19 07:59:56;;;;;;;10.90;6.30;;;;;;;;;;5027322;28;20051;-77
2020/12/19 08:02:41;;;;;;;13.10;6.30;;;;;;;;;;5045185;28;20032;-77
2020/12/19 08:05:27;;;;;;;10.10;6.10;;;;;;;;;;5051878;28;20040;-76
2020/12/19 08:08:12;;;;;;;11.57;6.68;;;;;;;;;;5042055;28;20108;-77
2020/12/19 08:11:01;;;;;;;10.68;7.30;;;;;;;;;;5046433;28;20017;-77
2020/12/19 08:13:49;;;;;;;12.30;6.75;;;;;;;;;;5046127;28;20522;-77
2020/12/19 08:16:35;;;;;;;20.75;11.38;;;;;;;;;;5045481;28;20423;-76
2020/12/19 08:19:23;;;;;;;15.15;9.35;;;;;;;;;;5049408;28;20024;-77
2020/12/19 08:22:09;;;;;;;13.50;8.00;;;;;;;;;;5048156;28;20107;-77
2020/12/19 08:24:54;;;;;;;17.20;8.70;;;;;;;;;;5043276;28;20036;-77
2020/12/19 08:27:41;;;;;;;13.52;8.32;;;;;;;;;;5036261;28;20020;-77
2020/12/19 08:30:28;;;;;;;17.50;7.45;;;;;;;;;;5043917;28;20035;-77
2020/12/19 08:33:13;;;;;;;12.85;6.53;;;;;;;;;;5047242;28;20118;-77
2020/12/19 08:35:58;;;;;;;19.50;8.15;;;;;;;;;;5046823;28;20036;-77
2020/12/19 08:38:43;;;;;;;19.42;8.85;;;;;;;;;;5043927;28;20020;-78
2020/12/19 08:41:29;;;;;;;15.50;7.93;;;;;;;;;;5046809;28;20240;-78
2020/12/19 08:44:21;;;;;;;12.05;6.93;;;;;;;;;;5046850;28;20145;-77
2020/12/19 08:47:07;;;;;;;10.52;6.90;;;;;;;;;;5049389;28;20478;-78
2020/12/19 08:49:52;;;;;;;13.63;6.97;;;;;;;;;;5041279;28;20211;-77
2020/12/19 08:52:38;;;;;;;12.75;7.30;;;;;;;;;;5033194;28;20021;-77
2020/12/19 08:55:23;;;;;;;14.68;8.18;;;;;;;;;;5044511;28;20483;-77
2020/12/19 08:58:18;;;;;;;21.02;9.93;;;;;;;;;;5037593;28;20471;-77
2020/12/19 09:01:16;;;;;;;17.92;9.48;;;;;;;;;;5058686;28;20032;-76
2020/12/19 09:04:11;;;;;;;16.60;8.30;;;;;;;;;;5031016;28;20040;-77
2020/12/19 09:06:57;;;;;;;10.98;6.90;;;;;;;;;;5050492;28;20089;-77
2020/12/19 09:09:42;;;;;;;13.93;8.00;;;;;;;;;;5031770;28;20021;-77
2020/12/19 09:12:27;;;;;;;16.40;9.00;;;;;;;;;;5043345;28;20090;-76
2020/12/19 09:15:16;;;;;;;14.43;6.97;;;;;;;;;;5042556;28;20031;-76
2020/12/19 09:18:12;;;;;;;14.32;8.02;;;;;;;;;;5044852;28;20107;-79
2020/12/19 09:20:58;;;;;;;18.10;8.52;;;;;;;;;;5048354;28;20112;-77
2020/12/19 09:23:43;;;;;;;15.05;9.02;;;;;;;;;;5046605;28;20135;-77
2020/12/19 09:26:29;;;;;;;14.57;9.25;;;;;;;;;;5047154;28;20074;-77
2020/12/19 09:29:14;;;;;;;15.18;8.10;;;;;;;;;;5046338;28;20039;-79
2020/12/19 09:32:00;;;;;;;13.88;8.07;;;;;;;;;;5051718;28;20035;-78
2020/12/19 09:34:45;;;;;;;15.82;8.15;;;;;;;;;;5045382;28;20032;-76
2020/12/19 09:37:30;;;;;;;13.60;8.93;;;;;;;;;;5051197;28;20040;-76
2020/12/19 09:40:15;;;;;;;37.28;22.80;;;;;;;;;;5051779;28;20517;-76
2020/12/19 09:43:00;;;;;;;17.90;11.85;;;;;;;;;;5054850;28;20024;-77
2020/12/19 09:45:46;;;;;;;14.23;8.75;;;;;;;;;;5046067;28;20690;-78
2020/12/19 09:48:31;;;;;;;14.00;8.88;;;;;;;;;;5054233;28;20409;-78
2020/12/19 09:51:16;;;;;;;14.63;9.45;;;;;;;;;;5049408;28;20131;-78
2020/12/19 09:54:02;;;;;;;14.80;8.05;;;;;;;;;;5058967;28;20020;-77
2020/12/19 09:56:47;;;;;;;15.63;8.05;;;;;;;;;;5056490;28;20032;-77
2020/12/19 09:59:32;;;;;;;13.60;7.40;;;;;;;;;;5035927;28;20067;-78
2020/12/19 10:02:17;;;;;;;13.13;8.52;;;;;;;;;;5046480;28;20055;-77
2020/12/19 10:05:03;;;;;;;13.80;7.07;;;;;;;;;;5051625;28;20044;-76
2020/12/19 10:07:48;;;;;;;14.02;6.90;;;;;;;;;;5052437;28;20041;-76
2020/12/19 10:10:34;;;;;;;16.75;8.30;;;;;;;;;;5051831;28;20060;-76
2020/12/19 10:13:19;;;;;;;13.05;7.43;;;;;;;;;;5047131;28;20364;-75
2020/12/19 10:16:05;;;;;;;15.45;7.63;;;;;;;;;;5047457;28;20421;-76
2020/12/19 10:18:50;;;;;;;11.23;6.75;;;;;;;;;;5044277;28;20503;-76
2020/12/19 10:21:35;;;;;;;20.52;7.22;;;;;;;;;;5050878;28;20052;-76
2020/12/19 10:24:20;;;;;;;11.00;7.13;;;;;;;;;;5053188;28;20029;-79
2020/12/19 10:27:06;;;;;;;12.93;7.28;;;;;;;;;;5053601;28;20035;-77
2020/12/19 10:29:51;;;;;;;17.70;10.32;;;;;;;;;;5050770;28;20025;-77
2020/12/19 10:32:36;;;;;;;14.60;8.45;;;;;;;;;;5041406;28;20171;-77
2020/12/19 10:35:21;;;;;;;17.65;8.60;;;;;;;;;;5044610;28;20020;-78
2020/12/19 10:38:06;;;;;;;12.55;7.30;;;;;;;;;;5047220;28;20031;-77
2020/12/19 10:40:52;;;;;;;12.82;6.40;;;;;;;;;;5040551;28;20025;-76
2020/12/19 10:43:41;;;;;;;11.38;6.05;;;;;;;;;;5043118;28;20020;-76
2020/12/19 10:46:27;;;;;;;11.52;5.40;;;;;;;;;;5052139;28;20024;-76
2020/12/19 10:49:12;;;;;;;9.57;5.88;;;;;;;;;;5042311;28;20055;-77
2020/12/19 10:52:01;;;;;;;9.93;5.32;;;;;;;;;;5049893;28;20049;-77
2020/12/19 10:54:46;;;;;;;11.50;5.78;;;;;;;;;;5048564;28;20024;-76
2020/12/19 10:57:32;;;;;;;10.70;5.85;;;;;;;;;;5037031;28;20600;-77
2020/12/19 11:00:17;;;;;;;10.38;6.00;;;;;;;;;;5044482;28;20054;-78
2020/12/19 11:03:02;;;;;;;10.20;5.13;;;;;;;;;;5042997;28;20031;-77
2020/12/19 11:05:47;;;;;;;10.00;5.60;;;;;;;;;;5042048;28;20543;-77
2020/12/19 11:08:33;;;;;;;8.68;5.00;;;;;;;;;;5045660;28;20115;-76
2020/12/19 11:11:19;;;;;;;12.20;4.82;;;;;;;;;;5049927;28;20060;-77
2020/12/19 11:14:04;;;;;;;9.32;5.30;;;;;;;;;;5042281;28;20468;-76
2020/12/19 11:16:49;;;;;;;12.20;5.43;;;;;;;;;;5050054;28;20074;-78
2020/12/19 11:19:35;;;;;;;11.10;5.25;;;;;;;;;;5042627;28;20556;-78
2020/12/19 11:22:20;;;;;;;11.50;5.05;;;;;;;;;;5044950;28;20060;-79
2020/12/19 11:25:05;;;;;;;9.35;4.88;;;;;;;;;;5045739;28;20105;-76
2020/12/19 11:27:51;;;;;;;13.00;5.22;;;;;;;;;;5050196;28;20052;-77
2020/12/19 11:30:36;;;;;;;7.80;4.65;;;;;;;;;;5035755;28;20029;-77
2020/12/19 11:33:21;;;;;;;11.57;4.97;;;;;;;;;;5033738;28;20024;-77
2020/12/19 11:36:06;;;;;;;11.32;5.32;;;;;;;;;;5044287;28;20070;-76
2020/12/19 11:38:52;;;;;;;9.65;5.07;;;;;;;;;;5045133;28;20021;-76
2020/12/19 11:41:41;;;;;;;13.57;4.65;;;;;;;;;;5048635;28;20028;-76
2020/12/19 11:44:26;;;;;;;9.73;5.17;;;;;;;;;;5046668;28;20047;-77
2020/12/19 11:47:11;;;;;;;10.32;4.93;;;;;;;;;;5051658;28;20040;-76
2020/12/19 11:49:56;;;;;;;10.45;4.88;;;;;;;;;;5047882;28;20035;-77
2020/12/19 11:52:42;;;;;;;11.30;4.85;;;;;;;;;;5046451;28;20025;-77
2020/12/19 11:55:27;;;;;;;15.13;5.40;;;;;;;;;;5034326;28;20017;-77
2020/12/19 11:58:12;;;;;;;11.25;5.80;;;;;;;;;;5045618;28;20033;-79
2020/12/19 12:00:57;;;;;;;12.48;5.75;;;;;;;;;;5049604;28;20067;-77
2020/12/19 12:03:43;;;;;;;9.73;5.28;;;;;;;;;;5052890;28;20058;-77
2020/12/19 12:06:29;;;;;;;10.20;3.88;;;;;;;;;;5042950;28;20064;-77
2020/12/19 12:09:53;;;;;;;7.95;3.38;;;;;;;;;;5046755;28;20110;-78
2020/12/19 12:12:48;;;;;;;8.57;4.00;;;;;;;;;;4958104;28;20038;-77
2020/12/19 12:15:33;;;;;;;9.13;3.92;;;;;;;;;;4966624;28;20062;-77
2020/12/19 12:18:19;;;;;;;5.80;2.75;;;;;;;;;;5038272;28;20025;-78
2020/12/19 12:21:04;;;;;;;4.00;2.50;;;;;;;;;;5037918;28;20510;-77
2020/12/19 12:23:49;;;;;;;4.90;2.72;;;;;;;;;;5044286;28;20024;-77
2020/12/19 12:26:35;;;;;;;3.97;2.17;;;;;;;;;;5039794;28;20498;-77
2020/12/19 12:29:20;;;;;;;4.85;2.17;;;;;;;;;;5051871;28;20368;-77
2020/12/19 12:32:05;;;;;;;4.78;2.22;;;;;;;;;;5044532;28;20050;-77
2020/12/19 12:34:50;;;;;;;6.45;3.03;;;;;;;;;;5046175;28;20031;-78
2020/12/19 12:37:36;;;;;;;4.88;2.55;;;;;;;;;;5041511;28;20059;-79
2020/12/19 12:40:21;;;;;;;8.18;3.53;;;;;;;;;;5044765;28;20060;-77
2020/12/19 12:43:06;;;;;;;5.15;2.55;;;;;;;;;;5043685;28;20016;-78
2020/12/19 12:45:51;;;;;;;6.03;2.20;;;;;;;;;;5046312;28;20383;-78
2020/12/19 12:48:37;;;;;;;4.57;2.35;;;;;;;;;;5045687;28;20032;-78
2020/12/19 12:51:22;;;;;;;5.30;2.85;;;;;;;;;;5037490;28;20036;-77
2020/12/19 12:54:07;;;;;;;4.70;2.15;;;;;;;;;;5047978;28;20111;-77
2020/12/19 12:56:52;;;;;;;5.35;2.33;;;;;;;;;;5047886;28;20385;-77
2020/12/19 12:59:39;;;;;;;5.57;2.22;;;;;;;;;;5044804;28;20031;-78
2020/12/19 13:02:24;;;;;;;4.95;2.03;;;;;;;;;;5039906;28;20032;-77
2020/12/19 13:05:09;;;;;;;6.82;2.80;;;;;;;;;;5041179;28;20048;-77
2020/12/19 13:07:54;;;;;;;6.97;2.40;;;;;;;;;;5039607;28;20521;-76
2020/12/19 13:10:40;;;;;;;9.75;2.70;;;;;;;;;;5043150;28;20028;-77
2020/12/19 13:13:26;;;;;;;7.20;3.45;;;;;;;;;;5045493;28;20608;-77
2020/12/19 13:16:11;;;;;;;4.80;2.67;;;;;;;;;;5046165;28;20039;-77
2020/12/19 13:18:56;;;;;;;7.85;2.83;;;;;;;;;;5035157;28;20028;-77
2020/12/19 13:21:46;;;;;;;6.95;2.35;;;;;;;;;;5042944;28;21613;-78
2020/12/19 13:24:31;;;;;;;6.03;3.08;;;;;;;;;;5039911;28;20024;-77
2020/12/19 13:27:16;;;;;;;8.43;2.83;;;;;;;;;;5047160;28;20050;-77
2020/12/19 13:30:02;;;;;;;8.75;3.10;;;;;;;;;;5040682;28;20048;-78
2020/12/19 13:32:47;;;;;;;5.50;3.03;;;;;;;;;;5052783;28;20017;-77
2020/12/19 13:35:32;;;;;;;13.68;4.40;;;;;;;;;;5042338;28;20016;-77
2020/12/19 13:38:17;;;;;;;5.28;2.40;;;;;;;;;;5037243;28;20025;-77
2020/12/19 13:41:02;;;;;;;7.65;2.53;;;;;;;;;;5033867;28;20710;-78
2020/12/19 13:43:48;;;;;;;5.25;2.58;;;;;;;;;;5045774;28;20021;-79
2020/12/19 13:46:33;;;;;;;3.95;2.20;;;;;;;;;;5048209;28;20090;-77
2020/12/19 13:49:18;;;;;;;5.90;2.67;;;;;;;;;;5041909;28;20029;-78
2020/12/19 13:52:03;;;;;;;6.15;3.20;;;;;;;;;;5039274;28;20036;-78
2020/12/19 13:54:49;;;;;;;5.45;3.00;;;;;;;;;;5035933;28;20769;-76
2020/12/19 13:57:35;;;;;;;6.78;2.85;;;;;;;;;;5033773;28;20032;-79
2020/12/19 14:00:20;;;;;;;4.35;2.78;;;;;;;;;;5037350;28;20089;-77
2020/12/19 14:03:05;;;;;;;7.50;2.88;;;;;;;;;;5053515;28;20169;-79
2020/12/19 14:05:50;;;;;;;5.93;2.65;;;;;;;;;;5048626;28;20048;-79
2020/12/19 14:08:36;;;;;;;12.25;6.30;;;;;;;;;;5053749;28;20025;-78
2020/12/19 14:11:25;;;;;;;14.38;7.80;;;;;;;;;;5040804;28;20025;-79
2020/12/19 14:14:11;;;;;;;13.20;7.15;;;;;;;;;;5033427;28;20079;-77
2020/12/19 14:17:00;;;;;;;6.95;4.30;;;;;;;;;;5051314;28;20028;-78
2020/12/19 14:19:45;;;;;;;9.13;4.60;;;;;;;;;;5048815;28;20133;-78
2020/12/19 14:22:30;;;;;;;9.10;3.97;;;;;;;;;;5043984;28;20029;-77
2020/12/19 14:25:15;;;;;;;11.25;5.10;;;;;;;;;;5050023;28;20017;-77
2020/12/19 14:28:00;;;;;;;10.98;5.55;;;;;;;;;;5048141;28;20153;-77
2020/12/19 14:30:46;;;;;;;11.30;5.20;;;;;;;;;;5045739;28;20035;-77
2020/12/19 14:33:31;;;;;;;8.40;3.75;;;;;;;;;;5045160;28;20025;-78
2020/12/19 14:36:19;;;;;;;10.38;4.80;;;;;;;;;;5047115;28;20029;-77
2020/12/19 14:39:04;;;;;;;12.10;6.55;;;;;;;;;;5049430;28;20691;-78
2020/12/19 14:41:49;;;;;;;11.20;4.72;;;;;;;;;;5042070;28;20328;-77
2020/12/19 14:44:35;;;;;;;11.20;4.10;;;;;;;;;;5048398;28;20390;-78
2020/12/19 14:47:20;;;;;;;7.03;3.72;;;;;;;;;;5045888;28;20043;-78
2020/12/19 14:50:06;;;;;;;12.25;4.47;;;;;;;;;;5048930;28;20039;-77
2020/12/19 14:52:51;;;;;;;10.73;4.93;;;;;;;;;;5035713;28;20029;-78
2020/12/19 14:55:36;;;;;;;14.68;6.53;;;;;;;;;;5049832;28;20117;-77
2020/12/19 14:58:21;;;;;;;10.13;5.28;;;;;;;;;;5040849;28;20024;-78
2020/12/19 15:01:08;;;;;;;11.48;5.28;;;;;;;;;;5048017;28;20462;-77
2020/12/19 15:03:53;;;;;;;11.50;5.53;;;;;;;;;;5045934;28;20549;-77
2020/12/19 15:06:39;;;;;;;10.70;4.75;;;;;;;;;;5047897;28;20041;-76
2020/12/19 15:09:24;;;;;;;16.17;5.47;;;;;;;;;;5037630;28;20383;-76
2020/12/19 15:12:09;;;;;;;8.02;4.45;;;;;;;;;;5052299;28;20091;-78
2020/12/19 15:14:55;;;;;;;13.07;5.53;;;;;;;;;;5046997;28;20052;-77
2020/12/19 15:17:40;;;;;;;12.10;6.25;;;;;;;;;;5051895;28;20028;-77
2020/12/19 15:20:25;;;;;;;11.35;5.30;;;;;;;;;;5056694;28;20025;-76
2020/12/19 15:23:10;;;;;;;10.60;4.85;;;;;;;;;;5048353;28;20060;-77
2020/12/19 15:25:56;;;;;;;8.13;4.53;;;;;;;;;;5051045;28;20197;-78
2020/12/19 15:28:41;;;;;;;9.57;5.18;;;;;;;;;;5049317;28;20028;-79
2020/12/19 15:31:26;;;;;;;12.77;4.72;;;;;;;;;;5043152;28;20479;-79
2020/12/19 15:34:11;;;;;;;9.88;4.93;;;;;;;;;;5041827;28;20024;-77
2020/12/19 15:36:56;;;;;;;13.07;5.45;;;;;;;;;;5048090;28;20028;-77
2020/12/19 15:39:42;;;;;;;8.52;5.13;;;;;;;;;;5049430;28;20025;-78
2020/12/19 15:42:27;;;;;;;10.52;5.80;;;;;;;;;;5045100;28;20028;-77
2020/12/19 15:45:12;;;;;;;12.38;6.20;;;;;;;;;;5049317;28;20028;-78
2020/12/19 15:47:58;;;;;;;14.85;6.78;;;;;;;;;;5047924;28;20334;-78
2020/12/19 15:50:43;;;;;;;12.02;6.20;;;;;;;;;;5046739;28;20126;-77
2020/12/19 15:53:29;;;;;;;11.98;5.82;;;;;;;;;;5048035;28;20509;-78
2020/12/19 15:56:14;;;;;;;13.57;5.38;;;;;;;;;;5051230;28;20060;-78
2020/12/19 15:58:59;;;;;;;13.98;7.45;;;;;;;;;;5049491;28;20111;-78
2020/12/19 16:01:45;;;;;;;16.65;8.38;;;;;;;;;;5045806;28;20075;-77
2020/12/19 16:04:30;;;;;;;11.88;6.90;;;;;;;;;;5034764;28;20399;-78
2020/12/19 16:07:15;;;;;;;11.82;6.65;;;;;;;;;;5035663;28;20032;-80
2020/12/19 16:10:00;;;;;;;11.23;5.75;;;;;;;;;;5050513;28;20399;-78
2020/12/19 16:12:46;;;;;;;13.63;7.55;;;;;;;;;;5049406;28;20542;-79
2020/12/19 16:15:31;;;;;;;11.82;5.20;;;;;;;;;;5047893;28;20021;-78
2020/12/19 16:18:16;;;;;;;12.30;6.80;;;;;;;;;;5046922;28;20366;-79
2020/12/19 16:21:02;;;;;;;11.05;6.15;;;;;;;;;;5041473;28;20120;-79
2020/12/19 16:23:47;;;;;;;10.48;5.13;;;;;;;;;;5048160;28;20494;-78
2020/12/19 16:26:32;;;;;;;14.98;7.57;;;;;;;;;;5046660;28;20038;-77